Fort Loudon, Pennsylvania
Current Conditions -  °F | °C
As of 11:53 AM on Tuesday 21 Oct 2014 (Local Time) from KHGR Reporting Station
Scattered Clouds Scattered Clouds  
Wind Chill: 62°   Ceiling: Unl
Heat Index: 62°   Visibility: 10mi
Dew Point: 48°   Wind: 10mph
Humidity: 60%   Direction: 300°WNW
Pressure: 29.87"   Gusts: NA
Location:  39.91°N, 77.9°W
Report Text: KHGR 211553Z 30009KT 10SM FEW032 SCT060 17/09 A2987 RMK AO2 SLP122 T01670089
Loading
Personal Weather Stations






























Interactive Weather Map
Tropical Storm Tracking
New forecast layout! Learn more

10-Day Weather Forecast

Advertisements
Track Severe Weather on mobile